sensor_id;sensor_type;location;lat;lon;timestamp;temperature;humidity
66140;DHT22;52945;51.908;8.364;2022-10-16T00:00:27;17.10;71.30
66140;DHT22;52945;51.908;8.364;2022-10-16T00:03:27;17.10;71.30
66140;DHT22;52945;51.908;8.364;2022-10-16T00:06:29;17.10;71.20
66140;DHT22;52945;51.908;8.364;2022-10-16T00:09:29;17.10;71.00
66140;DHT22;52945;51.908;8.364;2022-10-16T00:12:30;17.10;71.20
66140;DHT22;52945;51.908;8.364;2022-10-16T00:15:33;17.00;71.40
66140;DHT22;52945;51.908;8.364;2022-10-16T00:18:36;17.00;71.30
66140;DHT22;52945;51.908;8.364;2022-10-16T00:21:37;17.10;71.30
66140;DHT22;52945;51.908;8.364;2022-10-16T00:24:38;17.00;71.50
66140;DHT22;52945;51.908;8.364;2022-10-16T00:27:38;17.00;71.30
66140;DHT22;52945;51.908;8.364;2022-10-16T00:30:39;17.00;71.30
66140;DHT22;52945;51.908;8.364;2022-10-16T00:33:40;17.00;71.50
66140;DHT22;52945;51.908;8.364;2022-10-16T00:36:41;17.00;71.50
66140;DHT22;52945;51.908;8.364;2022-10-16T00:39:41;17.00;71.50
66140;DHT22;52945;51.908;8.364;2022-10-16T00:42:42;17.00;71.30
66140;DHT22;52945;51.908;8.364;2022-10-16T00:45:42;17.00;71.20
66140;DHT22;52945;51.908;8.364;2022-10-16T00:48:54;16.90;71.50
66140;DHT22;52945;51.908;8.364;2022-10-16T00:51:56;16.90;71.60
66140;DHT22;52945;51.908;8.364;2022-10-16T00:54:57;16.80;71.50
66140;DHT22;52945;51.908;8.364;2022-10-16T00:57:58;16.80;71.70
66140;DHT22;52945;51.908;8.364;2022-10-16T01:00:58;16.90;71.50
66140;DHT22;52945;51.908;8.364;2022-10-16T01:03:59;16.80;71.40
66140;DHT22;52945;51.908;8.364;2022-10-16T01:10:38;16.80;71.20
66140;DHT22;52945;51.908;8.364;2022-10-16T01:13:42;16.80;71.20
66140;DHT22;52945;51.908;8.364;2022-10-16T01:16:49;16.80;71.20
66140;DHT22;52945;51.908;8.364;2022-10-16T01:20:10;16.80;71.20
66140;DHT22;52945;51.908;8.364;2022-10-16T01:23:27;16.80;71.40
66140;DHT22;52945;51.908;8.364;2022-10-16T01:30:01;16.70;71.60
66140;DHT22;52945;51.908;8.364;2022-10-16T01:33:08;16.70;71.90
66140;DHT22;52945;51.908;8.364;2022-10-16T01:36:12;16.70;71.60
66140;DHT22;52945;51.908;8.364;2022-10-16T01:39:14;16.70;71.50
66140;DHT22;52945;51.908;8.364;2022-10-16T01:42:30;16.60;71.70
66140;DHT22;52945;51.908;8.364;2022-10-16T01:45:34;16.60;71.90
66140;DHT22;52945;51.908;8.364;2022-10-16T01:48:36;16.60;71.80
66140;DHT22;52945;51.908;8.364;2022-10-16T01:51:38;16.60;71.60
66140;DHT22;52945;51.908;8.364;2022-10-16T01:54:41;16.60;71.30
66140;DHT22;52945;51.908;8.364;2022-10-16T01:57:47;16.70;71.10
66140;DHT22;52945;51.908;8.364;2022-10-16T02:00:49;16.70;71.00
66140;DHT22;52945;51.908;8.364;2022-10-16T02:03:53;16.60;71.00
66140;DHT22;52945;51.908;8.364;2022-10-16T02:06:54;16.60;70.80
66140;DHT22;52945;51.908;8.364;2022-10-16T02:09:55;16.60;70.50
66140;DHT22;52945;51.908;8.364;2022-10-16T02:13:23;16.60;70.40
66140;DHT22;52945;51.908;8.364;2022-10-16T02:20:25;16.60;70.70
66140;DHT22;52945;51.908;8.364;2022-10-16T02:23:37;16.50;70.50
66140;DHT22;52945;51.908;8.364;2022-10-16T02:26:43;16.50;70.80
66140;DHT22;52945;51.908;8.364;2022-10-16T02:29:53;16.50;71.00
66140;DHT22;52945;51.908;8.364;2022-10-16T02:32:55;16.50;71.10
66140;DHT22;52945;51.908;8.364;2022-10-16T02:35:58;16.40;71.50
66140;DHT22;52945;51.908;8.364;2022-10-16T02:38:59;16.40;71.60
66140;DHT22;52945;51.908;8.364;2022-10-16T02:42:01;16.30;72.30
66140;DHT22;52945;51.908;8.364;2022-10-16T02:45:03;16.20;72.90
66140;DHT22;52945;51.908;8.364;2022-10-16T02:48:04;16.20;73.10
66140;DHT22;52945;51.908;8.364;2022-10-16T02:51:06;16.20;72.90
66140;DHT22;52945;51.908;8.364;2022-10-16T02:54:06;16.20;72.70
66140;DHT22;52945;51.908;8.364;2022-10-16T02:57:07;16.20;72.60
66140;DHT22;52945;51.908;8.364;2022-10-16T03:00:10;16.30;72.50
66140;DHT22;52945;51.908;8.364;2022-10-16T03:03:11;16.30;72.20
66140;DHT22;52945;51.908;8.364;2022-10-16T03:06:12;16.30;72.00
66140;DHT22;52945;51.908;8.364;2022-10-16T03:09:13;16.20;72.20
66140;DHT22;52945;51.908;8.364;2022-10-16T03:12:13;16.20;72.30
66140;DHT22;52945;51.908;8.364;2022-10-16T03:15:14;16.20;72.10
66140;DHT22;52945;51.908;8.364;2022-10-16T03:18:14;16.20;72.30
66140;DHT22;52945;51.908;8.364;2022-10-16T03:21:15;16.20;72.30
66140;DHT22;52945;51.908;8.364;2022-10-16T03:24:17;16.20;72.40
66140;DHT22;52945;51.908;8.364;2022-10-16T03:27:17;16.10;72.70
66140;DHT22;52945;51.908;8.364;2022-10-16T03:30:18;16.20;72.70
66140;DHT22;52945;51.908;8.364;2022-10-16T03:33:19;16.10;72.70
66140;DHT22;52945;51.908;8.364;2022-10-16T03:36:19;16.20;72.70
66140;DHT22;52945;51.908;8.364;2022-10-16T03:39:20;16.10;72.60
66140;DHT22;52945;51.908;8.364;2022-10-16T03:42:20;16.10;72.50
66140;DHT22;52945;51.908;8.364;2022-10-16T03:45:21;16.10;72.80
66140;DHT22;52945;51.908;8.364;2022-10-16T03:48:21;16.10;72.80
66140;DHT22;52945;51.908;8.364;2022-10-16T03:51:22;16.10;73.20
66140;DHT22;52945;51.908;8.364;2022-10-16T03:54:23;16.00;73.20
66140;DHT22;52945;51.908;8.364;2022-10-16T03:57:24;16.00;73.40
66140;DHT22;52945;51.908;8.364;2022-10-16T04:00:24;16.00;73.60
66140;DHT22;52945;51.908;8.364;2022-10-16T04:03:25;16.00;73.60
66140;DHT22;52945;51.908;8.364;2022-10-16T04:06:26;16.00;73.90
66140;DHT22;52945;51.908;8.364;2022-10-16T04:09:26;16.00;74.10
66140;DHT22;52945;51.908;8.364;2022-10-16T04:12:27;16.00;74.10
66140;DHT22;52945;51.908;8.364;2022-10-16T04:15:28;16.00;74.20
66140;DHT22;52945;51.908;8.364;2022-10-16T04:18:28;15.90;74.30
66140;DHT22;52945;51.908;8.364;2022-10-16T04:21:29;16.00;74.30
66140;DHT22;52945;51.908;8.364;2022-10-16T04:24:30;16.00;74.20
66140;DHT22;52945;51.908;8.364;2022-10-16T04:27:30;16.00;74.30
66140;DHT22;52945;51.908;8.364;2022-10-16T04:30:31;16.00;74.20
66140;DHT22;52945;51.908;8.364;2022-10-16T04:33:34;16.10;74.30
66140;DHT22;52945;51.908;8.364;2022-10-16T04:36:34;16.10;74.20
66140;DHT22;52945;51.908;8.364;2022-10-16T04:39:35;16.10;74.00
66140;DHT22;52945;51.908;8.364;2022-10-16T04:42:36;16.10;74.20
66140;DHT22;52945;51.908;8.364;2022-10-16T04:45:36;16.10;74.10
66140;DHT22;52945;51.908;8.364;2022-10-16T04:48:37;16.10;74.00
66140;DHT22;52945;51.908;8.364;2022-10-16T04:51:37;16.10;74.10
66140;DHT22;52945;51.908;8.364;2022-10-16T04:54:38;16.10;74.20
66140;DHT22;52945;51.908;8.364;2022-10-16T04:57:38;16.10;74.10
66140;DHT22;52945;51.908;8.364;2022-10-16T05:00:39;16.20;73.90
66140;DHT22;52945;51.908;8.364;2022-10-16T05:03:40;16.20;73.90
66140;DHT22;52945;51.908;8.364;2022-10-16T05:06:41;16.10;73.80
66140;DHT22;52945;51.908;8.364;2022-10-16T05:09:42;16.10;73.90
66140;DHT22;52945;51.908;8.364;2022-10-16T05:12:42;16.20;73.50
66140;DHT22;52945;51.908;8.364;2022-10-16T05:15:47;16.20;73.40
66140;DHT22;52945;51.908;8.364;2022-10-16T05:18:48;16.20;73.20
66140;DHT22;52945;51.908;8.364;2022-10-16T05:21:49;16.20;73.00
66140;DHT22;52945;51.908;8.364;2022-10-16T05:24:49;16.20;72.70
66140;DHT22;52945;51.908;8.364;2022-10-16T05:27:50;16.20;72.70
66140;DHT22;52945;51.908;8.364;2022-10-16T05:30:51;16.20;72.50
66140;DHT22;52945;51.908;8.364;2022-10-16T05:33:51;16.10;72.70
66140;DHT22;52945;51.908;8.364;2022-10-16T05:36:52;16.10;72.60
66140;DHT22;52945;51.908;8.364;2022-10-16T05:39:52;16.10;72.60
66140;DHT22;52945;51.908;8.364;2022-10-16T05:42:56;16.10;72.60
66140;DHT22;52945;51.908;8.364;2022-10-16T05:45:59;16.10;72.50
66140;DHT22;52945;51.908;8.364;2022-10-16T05:49:00;16.00;72.90
66140;DHT22;52945;51.908;8.364;2022-10-16T05:52:00;15.90;73.00
66140;DHT22;52945;51.908;8.364;2022-10-16T05:55:01;16.00;73.40
66140;DHT22;52945;51.908;8.364;2022-10-16T05:58:01;15.90;73.30
66140;DHT22;52945;51.908;8.364;2022-10-16T06:01:04;15.90;73.10
66140;DHT22;52945;51.908;8.364;2022-10-16T06:04:08;15.90;72.90
66140;DHT22;52945;51.908;8.364;2022-10-16T06:07:09;15.90;72.90
66140;DHT22;52945;51.908;8.364;2022-10-16T06:10:09;15.90;73.00
66140;DHT22;52945;51.908;8.364;2022-10-16T06:13:11;15.80;73.20
66140;DHT22;52945;51.908;8.364;2022-10-16T06:16:12;15.80;73.20
66140;DHT22;52945;51.908;8.364;2022-10-16T06:19:13;15.90;73.30
66140;DHT22;52945;51.908;8.364;2022-10-16T06:22:13;15.80;73.20
66140;DHT22;52945;51.908;8.364;2022-10-16T06:25:14;15.80;73.30
66140;DHT22;52945;51.908;8.364;2022-10-16T06:28:15;15.80;73.60
66140;DHT22;52945;51.908;8.364;2022-10-16T06:31:16;15.90;73.40
66140;DHT22;52945;51.908;8.364;2022-10-16T06:34:17;15.90;73.30
66140;DHT22;52945;51.908;8.364;2022-10-16T06:37:17;15.80;73.40
66140;DHT22;52945;51.908;8.364;2022-10-16T06:40:18;15.80;73.60
66140;DHT22;52945;51.908;8.364;2022-10-16T06:43:19;15.90;73.80
66140;DHT22;52945;51.908;8.364;2022-10-16T06:46:21;15.80;73.90
66140;DHT22;52945;51.908;8.364;2022-10-16T06:49:22;15.90;73.90
66140;DHT22;52945;51.908;8.364;2022-10-16T06:52:23;15.80;73.90
66140;DHT22;52945;51.908;8.364;2022-10-16T06:55:24;15.90;73.90
66140;DHT22;52945;51.908;8.364;2022-10-16T06:58:24;15.90;73.90
66140;DHT22;52945;51.908;8.364;2022-10-16T07:01:26;15.90;74.00
66140;DHT22;52945;51.908;8.364;2022-10-16T07:04:26;15.90;74.00
66140;DHT22;52945;51.908;8.364;2022-10-16T07:07:27;15.90;74.00
66140;DHT22;52945;51.908;8.364;2022-10-16T07:10:28;16.00;74.00
66140;DHT22;52945;51.908;8.364;2022-10-16T07:13:28;16.10;73.90
66140;DHT22;52945;51.908;8.364;2022-10-16T07:16:31;16.10;73.80
66140;DHT22;52945;51.908;8.364;2022-10-16T07:19:32;16.10;73.80
66140;DHT22;52945;51.908;8.364;2022-10-16T07:22:32;16.10;73.90
66140;DHT22;52945;51.908;8.364;2022-10-16T07:25:33;16.20;73.70
66140;DHT22;52945;51.908;8.364;2022-10-16T07:28:34;16.20;73.60
66140;DHT22;52945;51.908;8.364;2022-10-16T07:31:35;16.30;73.60
66140;DHT22;52945;51.908;8.364;2022-10-16T07:34:36;16.20;73.50
66140;DHT22;52945;51.908;8.364;2022-10-16T07:37:37;16.40;73.50
66140;DHT22;52945;51.908;8.364;2022-10-16T07:40:37;16.40;73.50
66140;DHT22;52945;51.908;8.364;2022-10-16T07:43:38;16.50;73.40
66140;DHT22;52945;51.908;8.364;2022-10-16T07:46:38;16.60;73.20
66140;DHT22;52945;51.908;8.364;2022-10-16T07:49:39;16.60;73.00
66140;DHT22;52945;51.908;8.364;2022-10-16T07:52:39;16.70;72.80
66140;DHT22;52945;51.908;8.364;2022-10-16T07:55:41;16.70;72.60
66140;DHT22;52945;51.908;8.364;2022-10-16T07:58:41;16.70;72.60
66140;DHT22;52945;51.908;8.364;2022-10-16T08:01:42;16.70;72.50
66140;DHT22;52945;51.908;8.364;2022-10-16T08:04:43;16.70;72.30
66140;DHT22;52945;51.908;8.364;2022-10-16T08:07:48;16.70;72.20
66140;DHT22;52945;51.908;8.364;2022-10-16T08:10:49;16.80;72.50
66140;DHT22;52945;51.908;8.364;2022-10-16T08:13:50;16.90;72.10
66140;DHT22;52945;51.908;8.364;2022-10-16T08:16:50;17.10;72.50
66140;DHT22;52945;51.908;8.364;2022-10-16T08:19:51;17.40;71.40
66140;DHT22;52945;51.908;8.364;2022-10-16T08:22:51;17.70;69.80
66140;DHT22;52945;51.908;8.364;2022-10-16T08:25:53;17.90;69.60
66140;DHT22;52945;51.908;8.364;2022-10-16T08:28:54;18.30;68.40
66140;DHT22;52945;51.908;8.364;2022-10-16T08:31:55;18.60;68.10
66140;DHT22;52945;51.908;8.364;2022-10-16T08:34:55;19.00;66.60
66140;DHT22;52945;51.908;8.364;2022-10-16T08:37:56;19.40;63.40
66140;DHT22;52945;51.908;8.364;2022-10-16T08:44:39;20.10;62.70
66140;DHT22;52945;51.908;8.364;2022-10-16T08:51:23;20.90;60.60
66140;DHT22;52945;51.908;8.364;2022-10-16T08:57:31;21.20;58.60
66140;DHT22;52945;51.908;8.364;2022-10-16T09:00:33;21.40;58.70
66140;DHT22;52945;51.908;8.364;2022-10-16T09:11:00;21.70;56.40
66140;DHT22;52945;51.908;8.364;2022-10-16T09:18:43;22.10;55.70
66140;DHT22;52945;51.908;8.364;2022-10-16T09:21:30;22.30;54.00
66140;DHT22;52945;51.908;8.364;2022-10-16T09:24:31;22.50;53.60
66140;DHT22;52945;51.908;8.364;2022-10-16T09:27:31;22.50;52.30
66140;DHT22;52945;51.908;8.364;2022-10-16T09:30:32;22.70;53.00
66140;DHT22;52945;51.908;8.364;2022-10-16T09:33:37;22.80;52.10
66140;DHT22;52945;51.908;8.364;2022-10-16T09:36:43;23.10;51.10
66140;DHT22;52945;51.908;8.364;2022-10-16T09:39:51;23.00;51.60
66140;DHT22;52945;51.908;8.364;2022-10-16T09:42:56;22.90;50.60
66140;DHT22;52945;51.908;8.364;2022-10-16T09:46:05;22.90;51.00
66140;DHT22;52945;51.908;8.364;2022-10-16T09:49:23;23.10;50.80
66140;DHT22;52945;51.908;8.364;2022-10-16T09:52:25;23.20;49.90
66140;DHT22;52945;51.908;8.364;2022-10-16T09:55:25;23.00;49.20
66140;DHT22;52945;51.908;8.364;2022-10-16T09:58:26;22.90;49.30
66140;DHT22;52945;51.908;8.364;2022-10-16T10:01:31;22.70;49.20
66140;DHT22;52945;51.908;8.364;2022-10-16T10:04:41;22.50;49.80
66140;DHT22;52945;51.908;8.364;2022-10-16T10:07:44;22.30;49.90
66140;DHT22;52945;51.908;8.364;2022-10-16T10:10:48;22.20;51.00
66140;DHT22;52945;51.908;8.364;2022-10-16T10:13:49;22.00;51.10
66140;DHT22;52945;51.908;8.364;2022-10-16T10:16:51;21.90;49.60
66140;DHT22;52945;51.908;8.364;2022-10-16T10:19:54;21.80;49.60
66140;DHT22;52945;51.908;8.364;2022-10-16T10:22:56;21.70;50.00
66140;DHT22;52945;51.908;8.364;2022-10-16T10:36:40;21.60;51.30
66140;DHT22;52945;51.908;8.364;2022-10-16T10:40:15;21.50;51.10
66140;DHT22;52945;51.908;8.364;2022-10-16T10:46:41;21.30;51.10
66140;DHT22;52945;51.908;8.364;2022-10-16T10:50:02;21.30;50.90
66140;DHT22;52945;51.908;8.364;2022-10-16T11:03:20;21.20;51.80
66140;DHT22;52945;51.908;8.364;2022-10-16T11:06:30;21.30;51.90
66140;DHT22;52945;51.908;8.364;2022-10-16T11:09:36;21.40;52.10
66140;DHT22;52945;51.908;8.364;2022-10-16T11:12:42;21.50;51.90
66140;DHT22;52945;51.908;8.364;2022-10-16T11:15:47;21.70;50.40
66140;DHT22;52945;51.908;8.364;2022-10-16T11:19:24;21.90;50.40
66140;DHT22;52945;51.908;8.364;2022-10-16T11:22:38;22.20;49.00
66140;DHT22;52945;51.908;8.364;2022-10-16T11:25:42;22.40;48.90
66140;DHT22;52945;51.908;8.364;2022-10-16T11:28:52;22.70;48.10
66140;DHT22;52945;51.908;8.364;2022-10-16T11:32:04;22.90;47.10
66140;DHT22;52945;51.908;8.364;2022-10-16T11:35:18;22.90;47.10
66140;DHT22;52945;51.908;8.364;2022-10-16T11:38:28;23.10;46.80
66140;DHT22;52945;51.908;8.364;2022-10-16T11:48:40;23.50;45.60
66140;DHT22;52945;51.908;8.364;2022-10-16T11:55:17;23.80;44.90
66140;DHT22;52945;51.908;8.364;2022-10-16T11:58:22;23.80;43.50
66140;DHT22;52945;51.908;8.364;2022-10-16T12:04:38;24.10;43.90
66140;DHT22;52945;51.908;8.364;2022-10-16T12:08:02;24.20;43.60
66140;DHT22;52945;51.908;8.364;2022-10-16T12:11:08;24.20;43.80
66140;DHT22;52945;51.908;8.364;2022-10-16T12:17:33;24.20;42.70
66140;DHT22;52945;51.908;8.364;2022-10-16T12:20:34;24.20;43.20
66140;DHT22;52945;51.908;8.364;2022-10-16T12:23:46;24.20;43.50
66140;DHT22;52945;51.908;8.364;2022-10-16T12:26:48;24.20;43.40
66140;DHT22;52945;51.908;8.364;2022-10-16T12:29:55;24.00;43.40
66140;DHT22;52945;51.908;8.364;2022-10-16T12:33:05;23.90;44.20
66140;DHT22;52945;51.908;8.364;2022-10-16T12:36:27;23.90;44.00
66140;DHT22;52945;51.908;8.364;2022-10-16T12:39:28;23.80;43.80
66140;DHT22;52945;51.908;8.364;2022-10-16T12:42:35;23.70;43.40
66140;DHT22;52945;51.908;8.364;2022-10-16T12:45:35;23.50;43.80
66140;DHT22;52945;51.908;8.364;2022-10-16T12:48:43;23.50;43.30
66140;DHT22;52945;51.908;8.364;2022-10-16T12:51:44;23.20;44.20
66140;DHT22;52945;51.908;8.364;2022-10-16T12:54:45;23.20;45.30
66140;DHT22;52945;51.908;8.364;2022-10-16T13:01:35;23.20;45.30
66140;DHT22;52945;51.908;8.364;2022-10-16T13:18:10;22.90;46.70
66140;DHT22;52945;51.908;8.364;2022-10-16T13:30:58;22.90;46.00
66140;DHT22;52945;51.908;8.364;2022-10-16T13:33:59;23.00;46.70
66140;DHT22;52945;51.908;8.364;2022-10-16T13:37:00;23.00;46.70
66140;DHT22;52945;51.908;8.364;2022-10-16T13:40:27;23.00;46.30
66140;DHT22;52945;51.908;8.364;2022-10-16T13:46:32;22.90;46.70
66140;DHT22;52945;51.908;8.364;2022-10-16T13:49:34;22.90;46.70
66140;DHT22;52945;51.908;8.364;2022-10-16T13:52:35;22.80;46.40
66140;DHT22;52945;51.908;8.364;2022-10-16T13:55:36;22.90;47.10
66140;DHT22;52945;51.908;8.364;2022-10-16T13:58:36;22.90;45.80
66140;DHT22;52945;51.908;8.364;2022-10-16T14:01:41;23.00;46.50
66140;DHT22;52945;51.908;8.364;2022-10-16T14:04:43;23.10;45.90
66140;DHT22;52945;51.908;8.364;2022-10-16T14:07:43;23.10;45.00
66140;DHT22;52945;51.908;8.364;2022-10-16T14:10:50;23.10;45.40
66140;DHT22;52945;51.908;8.364;2022-10-16T14:13:52;23.10;45.60
66140;DHT22;52945;51.908;8.364;2022-10-16T14:16:53;23.20;45.40
66140;DHT22;52945;51.908;8.364;2022-10-16T14:19:58;23.20;45.20
66140;DHT22;52945;51.908;8.364;2022-10-16T14:26:20;23.20;45.80
66140;DHT22;52945;51.908;8.364;2022-10-16T14:29:21;23.20;45.00
66140;DHT22;52945;51.908;8.364;2022-10-16T14:32:23;23.10;45.60
66140;DHT22;52945;51.908;8.364;2022-10-16T14:35:37;23.10;45.40
66140;DHT22;52945;51.908;8.364;2022-10-16T14:38:39;23.10;45.90
66140;DHT22;52945;51.908;8.364;2022-10-16T14:41:44;23.00;45.90
66140;DHT22;52945;51.908;8.364;2022-10-16T14:44:46;23.00;46.90
66140;DHT22;52945;51.908;8.364;2022-10-16T14:48:00;22.90;46.40
66140;DHT22;52945;51.908;8.364;2022-10-16T14:51:02;23.00;46.80
66140;DHT22;52945;51.908;8.364;2022-10-16T14:54:03;23.00;46.80
66140;DHT22;52945;51.908;8.364;2022-10-16T14:57:04;23.00;46.20
66140;DHT22;52945;51.908;8.364;2022-10-16T15:00:19;23.00;46.30
66140;DHT22;52945;51.908;8.364;2022-10-16T15:03:20;23.00;46.90
66140;DHT22;52945;51.908;8.364;2022-10-16T15:06:21;23.00;47.10
66140;DHT22;52945;51.908;8.364;2022-10-16T15:09:22;23.00;46.90
66140;DHT22;52945;51.908;8.364;2022-10-16T15:12:22;23.10;46.10
66140;DHT22;52945;51.908;8.364;2022-10-16T15:15:24;23.10;45.70
66140;DHT22;52945;51.908;8.364;2022-10-16T15:18:25;23.10;46.00
66140;DHT22;52945;51.908;8.364;2022-10-16T15:21:31;23.20;46.30
66140;DHT22;52945;51.908;8.364;2022-10-16T15:24:32;23.20;46.40
66140;DHT22;52945;51.908;8.364;2022-10-16T15:27:32;23.20;47.20
66140;DHT22;52945;51.908;8.364;2022-10-16T15:30:40;23.20;46.20
66140;DHT22;52945;51.908;8.364;2022-10-16T15:33:41;23.20;46.50
66140;DHT22;52945;51.908;8.364;2022-10-16T15:36:42;23.20;46.50
66140;DHT22;52945;51.908;8.364;2022-10-16T15:39:42;23.10;46.60
66140;DHT22;52945;51.908;8.364;2022-10-16T15:42:43;23.10;47.50
66140;DHT22;52945;51.908;8.364;2022-10-16T15:45:44;23.00;48.30
66140;DHT22;52945;51.908;8.364;2022-10-16T15:48:56;22.90;48.00
66140;DHT22;52945;51.908;8.364;2022-10-16T15:51:57;22.80;48.30
66140;DHT22;52945;51.908;8.364;2022-10-16T15:54:58;22.70;49.00
66140;DHT22;52945;51.908;8.364;2022-10-16T15:57:59;22.70;48.80
66140;DHT22;52945;51.908;8.364;2022-10-16T16:01:01;22.70;49.30
66140;DHT22;52945;51.908;8.364;2022-10-16T16:04:02;22.60;49.70
66140;DHT22;52945;51.908;8.364;2022-10-16T16:07:02;22.40;49.50
66140;DHT22;52945;51.908;8.364;2022-10-16T16:10:05;22.40;49.50
66140;DHT22;52945;51.908;8.364;2022-10-16T16:13:06;22.30;49.50
66140;DHT22;52945;51.908;8.364;2022-10-16T16:16:12;22.30;50.90
66140;DHT22;52945;51.908;8.364;2022-10-16T16:19:14;22.30;51.70
66140;DHT22;52945;51.908;8.364;2022-10-16T16:22:16;22.20;52.20
66140;DHT22;52945;51.908;8.364;2022-10-16T16:25:17;22.10;52.70
66140;DHT22;52945;51.908;8.364;2022-10-16T16:28:17;22.10;52.50
66140;DHT22;52945;51.908;8.364;2022-10-16T16:31:19;22.00;52.80
66140;DHT22;52945;51.908;8.364;2022-10-16T16:34:19;21.90;53.30
66140;DHT22;52945;51.908;8.364;2022-10-16T16:37:21;21.90;53.30
66140;DHT22;52945;51.908;8.364;2022-10-16T16:40:21;21.80;52.90
66140;DHT22;52945;51.908;8.364;2022-10-16T16:43:26;21.70;53.00
66140;DHT22;52945;51.908;8.364;2022-10-16T16:46:27;21.70;53.10
66140;DHT22;52945;51.908;8.364;2022-10-16T16:49:27;21.70;53.40
66140;DHT22;52945;51.908;8.364;2022-10-16T16:52:29;21.60;53.70
66140;DHT22;52945;51.908;8.364;2022-10-16T16:55:29;21.50;54.10
66140;DHT22;52945;51.908;8.364;2022-10-16T16:58:30;21.50;54.30
66140;DHT22;52945;51.908;8.364;2022-10-16T17:01:31;21.40;54.50
66140;DHT22;52945;51.908;8.364;2022-10-16T17:04:31;21.40;54.80
66140;DHT22;52945;51.908;8.364;2022-10-16T17:07:32;21.40;54.40
66140;DHT22;52945;51.908;8.364;2022-10-16T17:10:42;21.30;54.40
66140;DHT22;52945;51.908;8.364;2022-10-16T17:13:43;21.30;54.80
66140;DHT22;52945;51.908;8.364;2022-10-16T17:16:44;21.20;54.80
66140;DHT22;52945;51.908;8.364;2022-10-16T17:19:45;21.20;55.00
66140;DHT22;52945;51.908;8.364;2022-10-16T17:22:45;21.20;54.40
66140;DHT22;52945;51.908;8.364;2022-10-16T17:25:46;21.10;54.40
66140;DHT22;52945;51.908;8.364;2022-10-16T17:28:51;21.10;54.70
66140;DHT22;52945;51.908;8.364;2022-10-16T17:31:52;21.10;54.90
66140;DHT22;52945;51.908;8.364;2022-10-16T17:34:53;21.00;55.10
66140;DHT22;52945;51.908;8.364;2022-10-16T17:37:53;21.00;55.30
66140;DHT22;52945;51.908;8.364;2022-10-16T17:40:54;20.90;54.80
66140;DHT22;52945;51.908;8.364;2022-10-16T17:43:54;20.90;55.30
66140;DHT22;52945;51.908;8.364;2022-10-16T17:46:55;20.80;55.70
66140;DHT22;52945;51.908;8.364;2022-10-16T17:49:56;20.80;55.60
66140;DHT22;52945;51.908;8.364;2022-10-16T17:52:58;20.70;55.50
66140;DHT22;52945;51.908;8.364;2022-10-16T17:56:05;20.70;55.70
66140;DHT22;52945;51.908;8.364;2022-10-16T17:59:06;20.70;55.90
66140;DHT22;52945;51.908;8.364;2022-10-16T18:02:08;20.70;56.20
66140;DHT22;52945;51.908;8.364;2022-10-16T18:05:08;20.70;56.30
66140;DHT22;52945;51.908;8.364;2022-10-16T18:08:10;20.60;56.20
66140;DHT22;52945;51.908;8.364;2022-10-16T18:11:11;20.60;56.30
66140;DHT22;52945;51.908;8.364;2022-10-16T18:14:13;20.60;56.60
66140;DHT22;52945;51.908;8.364;2022-10-16T18:17:14;20.50;57.00
66140;DHT22;52945;51.908;8.364;2022-10-16T18:20:18;20.50;57.20
66140;DHT22;52945;51.908;8.364;2022-10-16T18:23:20;20.50;57.10
66140;DHT22;52945;51.908;8.364;2022-10-16T18:26:20;20.40;57.40
66140;DHT22;52945;51.908;8.364;2022-10-16T18:29:23;20.40;57.00
66140;DHT22;52945;51.908;8.364;2022-10-16T18:32:24;20.40;57.10
66140;DHT22;52945;51.908;8.364;2022-10-16T18:35:24;20.30;57.00
66140;DHT22;52945;51.908;8.364;2022-10-16T18:38:25;20.30;57.30
66140;DHT22;52945;51.908;8.364;2022-10-16T18:41:26;20.20;57.60
66140;DHT22;52945;51.908;8.364;2022-10-16T18:44:27;20.20;57.60
66140;DHT22;52945;51.908;8.364;2022-10-16T18:47:27;20.20;57.80
66140;DHT22;52945;51.908;8.364;2022-10-16T18:50:28;20.20;57.80
66140;DHT22;52945;51.908;8.364;2022-10-16T18:53:29;20.10;58.00
66140;DHT22;52945;51.908;8.364;2022-10-16T18:56:30;20.20;58.10
66140;DHT22;52945;51.908;8.364;2022-10-16T18:59:31;20.20;58.20
66140;DHT22;52945;51.908;8.364;2022-10-16T19:02:32;20.10;58.30
66140;DHT22;52945;51.908;8.364;2022-10-16T19:05:33;20.00;58.20
66140;DHT22;52945;51.908;8.364;2022-10-16T19:08:34;20.00;58.20
66140;DHT22;52945;51.908;8.364;2022-10-16T19:11:37;20.00;58.30
66140;DHT22;52945;51.908;8.364;2022-10-16T19:14:38;19.90;58.40
66140;DHT22;52945;51.908;8.364;2022-10-16T19:17:39;19.90;58.40
66140;DHT22;52945;51.908;8.364;2022-10-16T19:20:39;19.80;58.50
66140;DHT22;52945;51.908;8.364;2022-10-16T19:23:40;19.80;58.60
66140;DHT22;52945;51.908;8.364;2022-10-16T19:26:42;19.70;58.90
66140;DHT22;52945;51.908;8.364;2022-10-16T19:29:42;19.80;58.90
66140;DHT22;52945;51.908;8.364;2022-10-16T19:32:43;19.70;58.90
66140;DHT22;52945;51.908;8.364;2022-10-16T19:35:45;19.70;59.00
66140;DHT22;52945;51.908;8.364;2022-10-16T19:38:45;19.70;59.10
66140;DHT22;52945;51.908;8.364;2022-10-16T19:41:46;19.70;59.20
66140;DHT22;52945;51.908;8.364;2022-10-16T19:44:47;19.70;59.30
66140;DHT22;52945;51.908;8.364;2022-10-16T19:47:48;19.70;59.40
66140;DHT22;52945;51.908;8.364;2022-10-16T19:50:48;19.60;59.40
66140;DHT22;52945;51.908;8.364;2022-10-16T19:53:55;19.70;59.50
66140;DHT22;52945;51.908;8.364;2022-10-16T19:56:55;19.60;59.50
66140;DHT22;52945;51.908;8.364;2022-10-16T19:59:59;19.60;59.60
66140;DHT22;52945;51.908;8.364;2022-10-16T20:03:00;19.60;59.60
66140;DHT22;52945;51.908;8.364;2022-10-16T20:06:02;19.60;59.70
66140;DHT22;52945;51.908;8.364;2022-10-16T20:09:06;19.50;59.70
66140;DHT22;52945;51.908;8.364;2022-10-16T20:12:06;19.60;59.80
66140;DHT22;52945;51.908;8.364;2022-10-16T20:15:07;19.50;60.10
66140;DHT22;52945;51.908;8.364;2022-10-16T20:18:08;19.50;60.10
66140;DHT22;52945;51.908;8.364;2022-10-16T20:21:09;19.50;60.30
66140;DHT22;52945;51.908;8.364;2022-10-16T20:24:10;19.50;60.20
66140;DHT22;52945;51.908;8.364;2022-10-16T20:27:10;19.40;60.60
66140;DHT22;52945;51.908;8.364;2022-10-16T20:30:11;19.40;61.80
66140;DHT22;52945;51.908;8.364;2022-10-16T20:33:12;19.40;63.10
66140;DHT22;52945;51.908;8.364;2022-10-16T20:36:14;19.40;63.30
66140;DHT22;52945;51.908;8.364;2022-10-16T20:39:15;19.40;64.30
66140;DHT22;52945;51.908;8.364;2022-10-16T20:42:16;19.40;65.50
66140;DHT22;52945;51.908;8.364;2022-10-16T20:45:16;19.40;65.70
66140;DHT22;52945;51.908;8.364;2022-10-16T20:48:17;19.30;65.50
66140;DHT22;52945;51.908;8.364;2022-10-16T20:51:23;19.30;66.60
66140;DHT22;52945;51.908;8.364;2022-10-16T20:54:24;19.10;67.00
66140;DHT22;52945;51.908;8.364;2022-10-16T20:57:24;19.10;67.30
66140;DHT22;52945;51.908;8.364;2022-10-16T21:00:25;19.00;67.30